»·PEaware :: N282ND KSNA-KRNM

N282ND :: KSNA-KRNM

FLIGHT INFORMATION

Flight Status: Arrived
Operator: Privately registered:
United States
More flights under this callsign
Pilot: Patrick P. (19681)
Aircraft: PIPER PA-28R-201 ARROW
(P28R)
More flights by this aircraft type
Origin: KSNA John Wayne-Orange Co
United States
Destination: KRNM Ramona
United States
More flights between these airports :: More routes between these airports
Route:
File this flight plan on PilotEdge
Remarks:
Altitude:
(Current/Filed)
5,500ft
Speed:
(Current/Filed)
0kts
Departed: 24-Nov-20 01:24 PM
Arrived: 24-Nov-20 02:06 PM
Distance/Time
Traveled:
61nm/0:42
Distance/Time
To Go:
Arrived

Flight Plot

Page will automatically refresh every two minutes.


Map Options




Map Legend


Flown Route
Filed Route
Departure Airport
Arrival Airport
Navaid (VOR, NDB)
Fix

Horizontal Profiles

Position Reports

Time Latitude Longitude Heading Altitude Ground
Speed
24-Nov-20 13:14 33.675624 -117.871064 40 59ft 0kts
24-Nov-20 13:15 33.675624 -117.871064 40 59ft 0kts
24-Nov-20 13:16 33.675684 -117.870331 27 59ft 15kts
24-Nov-20 13:17 33.680319 -117.867601 29 59ft 24kts
24-Nov-20 13:18 33.681402 -117.866639 130 59ft 0kts
24-Nov-20 13:19 33.681402 -117.866638 130 59ft 0kts
24-Nov-20 13:20 33.681402 -117.866639 130 59ft 0kts
24-Nov-20 13:21 33.681402 -117.866639 130 59ft 0kts
24-Nov-20 13:22 33.681308 -117.866506 126 59ft 2kts
24-Nov-20 13:23 33.670810 -117.871766 207 231ft 82kts
24-Nov-20 13:24 33.647841 -117.878741 164 1288ft 101kts
24-Nov-20 13:25 33.620089 -117.869637 166 1957ft 105kts
24-Nov-20 13:26 33.591960 -117.858863 160 2518ft 107kts
24-Nov-20 13:27 33.563498 -117.846537 157 3027ft 110kts
24-Nov-20 13:28 33.537733 -117.827357 138 3499ft 111kts
24-Nov-20 13:29 33.513711 -117.803848 136 3959ft 111kts
24-Nov-20 13:30 33.491035 -117.778779 136 4411ft 111kts
24-Nov-20 13:31 33.466860 -117.755753 151 4836ft 112kts
24-Nov-20 13:32 33.439797 -117.737476 137 5232ft 113kts
24-Nov-20 13:33 33.415223 -117.713282 135 5511ft 122kts
24-Nov-20 13:34 33.390597 -117.686381 135 5502ft 117kts
24-Nov-20 13:35 33.366622 -117.660306 135 5502ft 116kts
24-Nov-20 13:36 33.342677 -117.633986 135 5502ft 116kts
24-Nov-20 13:37 33.318702 -117.607687 135 5503ft 117kts
24-Nov-20 13:38 33.294627 -117.581393 135 5502ft 117kts
24-Nov-20 13:39 33.270357 -117.554925 135 5502ft 117kts
24-Nov-20 13:40 33.246067 -117.528402 135 5502ft 118kts
24-Nov-20 13:41 33.221841 -117.501695 135 5502ft 118kts
24-Nov-20 13:42 33.197656 -117.475033 136 5502ft 118kts
24-Nov-20 13:43 33.175054 -117.446894 110 5500ft 117kts
24-Nov-20 13:44 33.162819 -117.410656 110 5502ft 117kts
24-Nov-20 13:45 33.150678 -117.374429 110 5502ft 117kts
24-Nov-20 13:46 33.138459 -117.338122 110 5503ft 117kts
24-Nov-20 13:47 33.126129 -117.301781 112 5510ft 117kts
24-Nov-20 13:48 33.112661 -117.265541 112 5310ft 121kts
24-Nov-20 13:49 33.098635 -117.228187 116 4801ft 124kts
24-Nov-20 13:50 33.088135 -117.189391 109 4282ft 122kts
24-Nov-20 13:51 33.080566 -117.149970 99 3769ft 122kts
24-Nov-20 13:52 33.073064 -117.111219 101 3354ft 118kts
24-Nov-20 13:53 33.060441 -117.075470 115 3057ft 114kts
24-Nov-20 13:54 33.049830 -117.040194 105 3034ft 111kts
24-Nov-20 13:55 33.039498 -117.004493 117 2565ft 116kts
24-Nov-20 13:56 33.033555 -116.968902 90 2303ft 110kts
24-Nov-20 13:57 33.032868 -116.935685 106 2247ft 93kts
24-Nov-20 13:58 33.024573 -116.901544 106 2478ft 114kts
24-Nov-20 13:59 33.023348 -116.868892 11 2511ft 107kts
24-Nov-20 14:00 33.034821 -116.887145 280 1850ft 72kts
24-Nov-20 14:01 33.038351 -116.909885 280 1395ft 49kts
24-Nov-20 14:02 33.041256 -116.934846 244 2219ft 87kts
24-Nov-20 14:03 33.023316 -116.916379 105 2450ft 100kts
24-Nov-20 14:04 33.035643 -116.899193 312 1679ft 84kts
24-Nov-20 14:05 33.039318 -116.912334 49 1395ft 7kts
24-Nov-20 14:06 33.040184 -116.911295 117 1395ft 0kts
24-Nov-20 14:07 33.040184 -116.911295 117 1395ft 0kts
24-Nov-20 14:08 33.040184 -116.911295 117 1395ft 0kts
24-Nov-20 14:09 33.040184 -116.911295 117 1395ft 0kts
24-Nov-20 14:10 33.040184 -116.911295 117 1395ft 0kts
24-Nov-20 14:11 33.040184 -116.911295 117 1395ft 0kts

Navigation Log

Ident Type
Flight plan parsing failed, navigation log unavailable